sensor_id;sensor_type;location;lat;lon;timestamp;P1;durP1;ratioP1;P2;durP2;ratioP2
12118;SDS011;6123;48.864;9.200;2024-02-21T00:02:11;7.15;;;3.20;;
12118;SDS011;6123;48.864;9.200;2024-02-21T00:04:37;6.00;;;3.78;;
12118;SDS011;6123;48.864;9.200;2024-02-21T00:07:03;6.72;;;4.03;;
12118;SDS011;6123;48.864;9.200;2024-02-21T00:09:29;10.25;;;4.05;;
12118;SDS011;6123;48.864;9.200;2024-02-21T00:11:55;7.88;;;3.92;;
12118;SDS011;6123;48.864;9.200;2024-02-21T00:14:20;7.65;;;3.30;;
12118;SDS011;6123;48.864;9.200;2024-02-21T00:16:46;6.45;;;3.53;;
12118;SDS011;6123;48.864;9.200;2024-02-21T00:19:12;7.40;;;3.50;;
12118;SDS011;6123;48.864;9.200;2024-02-21T00:21:39;6.50;;;3.35;;
12118;SDS011;6123;48.864;9.200;2024-02-21T00:24:05;8.55;;;4.20;;
12118;SDS011;6123;48.864;9.200;2024-02-21T00:26:31;7.15;;;3.40;;
12118;SDS011;6123;48.864;9.200;2024-02-21T00:28:56;5.45;;;3.20;;
12118;SDS011;6123;48.864;9.200;2024-02-21T00:31:22;5.65;;;3.13;;
12118;SDS011;6123;48.864;9.200;2024-02-21T00:33:47;6.05;;;3.17;;
12118;SDS011;6123;48.864;9.200;2024-02-21T00:36:13;5.13;;;2.70;;
12118;SDS011;6123;48.864;9.200;2024-02-21T00:38:39;4.32;;;3.00;;
12118;SDS011;6123;48.864;9.200;2024-02-21T00:41:05;6.13;;;3.30;;
12118;SDS011;6123;48.864;9.200;2024-02-21T00:43:30;6.43;;;3.20;;
12118;SDS011;6123;48.864;9.200;2024-02-21T00:45:56;5.63;;;3.13;;
12118;SDS011;6123;48.864;9.200;2024-02-21T00:48:22;6.63;;;3.50;;
12118;SDS011;6123;48.864;9.200;2024-02-21T00:50:47;8.93;;;3.38;;
12118;SDS011;6123;48.864;9.200;2024-02-21T00:53:13;7.55;;;3.10;;
12118;SDS011;6123;48.864;9.200;2024-02-21T00:55:38;7.22;;;3.25;;
12118;SDS011;6123;48.864;9.200;2024-02-21T00:58:05;10.68;;;3.42;;
12118;SDS011;6123;48.864;9.200;2024-02-21T01:00:30;7.63;;;2.83;;
12118;SDS011;6123;48.864;9.200;2024-02-21T01:02:56;7.88;;;3.10;;
12118;SDS011;6123;48.864;9.200;2024-02-21T01:05:22;7.15;;;3.40;;
12118;SDS011;6123;48.864;9.200;2024-02-21T01:07:47;6.38;;;3.60;;
12118;SDS011;6123;48.864;9.200;2024-02-21T01:10:13;8.90;;;3.30;;
12118;SDS011;6123;48.864;9.200;2024-02-21T01:12:38;7.03;;;3.13;;
12118;SDS011;6123;48.864;9.200;2024-02-21T01:15:04;5.07;;;3.08;;
12118;SDS011;6123;48.864;9.200;2024-02-21T01:17:30;5.50;;;3.17;;
12118;SDS011;6123;48.864;9.200;2024-02-21T01:19:55;6.75;;;3.17;;
12118;SDS011;6123;48.864;9.200;2024-02-21T01:22:21;4.97;;;3.13;;
12118;SDS011;6123;48.864;9.200;2024-02-21T01:24:46;6.03;;;3.17;;
12118;SDS011;6123;48.864;9.200;2024-02-21T01:27:12;7.20;;;3.10;;
12118;SDS011;6123;48.864;9.200;2024-02-21T01:29:37;6.05;;;3.13;;
12118;SDS011;6123;48.864;9.200;2024-02-21T01:32:03;5.60;;;2.90;;
12118;SDS011;6123;48.864;9.200;2024-02-21T01:34:29;5.60;;;2.80;;
12118;SDS011;6123;48.864;9.200;2024-02-21T01:36:54;8.38;;;2.70;;
12118;SDS011;6123;48.864;9.200;2024-02-21T01:39:20;7.25;;;3.03;;
12118;SDS011;6123;48.864;9.200;2024-02-21T01:41:45;5.90;;;3.00;;
12118;SDS011;6123;48.864;9.200;2024-02-21T01:44:11;5.18;;;3.05;;
12118;SDS011;6123;48.864;9.200;2024-02-21T01:46:36;8.15;;;3.50;;
12118;SDS011;6123;48.864;9.200;2024-02-21T01:49:02;4.43;;;2.88;;
12118;SDS011;6123;48.864;9.200;2024-02-21T01:51:29;7.28;;;2.92;;
12118;SDS011;6123;48.864;9.200;2024-02-21T01:53:55;6.07;;;2.72;;
12118;SDS011;6123;48.864;9.200;2024-02-21T01:56:22;5.55;;;3.17;;
12118;SDS011;6123;48.864;9.200;2024-02-21T01:58:48;8.27;;;3.30;;
12118;SDS011;6123;48.864;9.200;2024-02-21T02:01:14;5.22;;;3.13;;
12118;SDS011;6123;48.864;9.200;2024-02-21T02:03:41;6.15;;;3.17;;
12118;SDS011;6123;48.864;9.200;2024-02-21T02:06:07;9.20;;;3.38;;
12118;SDS011;6123;48.864;9.200;2024-02-21T02:08:33;7.20;;;3.40;;
12118;SDS011;6123;48.864;9.200;2024-02-21T02:10:59;5.28;;;2.65;;
12118;SDS011;6123;48.864;9.200;2024-02-21T02:13:25;6.65;;;3.30;;
12118;SDS011;6123;48.864;9.200;2024-02-21T02:15:50;7.70;;;3.20;;
12118;SDS011;6123;48.864;9.200;2024-02-21T02:18:16;9.98;;;3.60;;
12118;SDS011;6123;48.864;9.200;2024-02-21T02:20:43;5.40;;;2.90;;
12118;SDS011;6123;48.864;9.200;2024-02-21T02:23:10;6.45;;;3.15;;
12118;SDS011;6123;48.864;9.200;2024-02-21T02:25:37;7.75;;;3.58;;
12118;SDS011;6123;48.864;9.200;2024-02-21T02:28:05;6.63;;;3.72;;
12118;SDS011;6123;48.864;9.200;2024-02-21T02:30:37;5.75;;;3.50;;
12118;SDS011;6123;48.864;9.200;2024-02-21T02:33:03;4.57;;;3.50;;
12118;SDS011;6123;48.864;9.200;2024-02-21T02:35:29;7.80;;;3.28;;
12118;SDS011;6123;48.864;9.200;2024-02-21T02:37:54;6.57;;;3.33;;
12118;SDS011;6123;48.864;9.200;2024-02-21T02:40:20;4.50;;;3.10;;
12118;SDS011;6123;48.864;9.200;2024-02-21T02:42:45;7.38;;;3.40;;
12118;SDS011;6123;48.864;9.200;2024-02-21T02:45:11;5.65;;;3.15;;
12118;SDS011;6123;48.864;9.200;2024-02-21T02:47:39;5.75;;;3.38;;
12118;SDS011;6123;48.864;9.200;2024-02-21T02:50:05;6.38;;;3.15;;
12118;SDS011;6123;48.864;9.200;2024-02-21T02:52:31;6.50;;;2.83;;
12118;SDS011;6123;48.864;9.200;2024-02-21T02:54:57;7.20;;;2.60;;
12118;SDS011;6123;48.864;9.200;2024-02-21T02:57:23;7.18;;;3.28;;
12118;SDS011;6123;48.864;9.200;2024-02-21T02:59:48;5.65;;;2.80;;
12118;SDS011;6123;48.864;9.200;2024-02-21T03:02:15;5.50;;;2.58;;
12118;SDS011;6123;48.864;9.200;2024-02-21T03:04:40;6.30;;;2.80;;
12118;SDS011;6123;48.864;9.200;2024-02-21T03:07:06;6.03;;;2.40;;
12118;SDS011;6123;48.864;9.200;2024-02-21T03:09:32;5.63;;;2.83;;
12118;SDS011;6123;48.864;9.200;2024-02-21T03:11:57;4.88;;;2.58;;
12118;SDS011;6123;48.864;9.200;2024-02-21T03:14:30;5.60;;;3.03;;
12118;SDS011;6123;48.864;9.200;2024-02-21T03:16:57;5.20;;;2.70;;
12118;SDS011;6123;48.864;9.200;2024-02-21T03:19:23;6.15;;;2.97;;
12118;SDS011;6123;48.864;9.200;2024-02-21T03:21:49;4.80;;;2.63;;
12118;SDS011;6123;48.864;9.200;2024-02-21T03:24:15;7.65;;;3.17;;
12118;SDS011;6123;48.864;9.200;2024-02-21T03:26:41;4.85;;;2.97;;
12118;SDS011;6123;48.864;9.200;2024-02-21T03:29:07;6.18;;;2.35;;
12118;SDS011;6123;48.864;9.200;2024-02-21T03:31:33;8.23;;;3.13;;
12118;SDS011;6123;48.864;9.200;2024-02-21T03:34:00;6.00;;;2.70;;
12118;SDS011;6123;48.864;9.200;2024-02-21T03:36:25;5.57;;;2.92;;
12118;SDS011;6123;48.864;9.200;2024-02-21T03:38:51;4.90;;;2.70;;
12118;SDS011;6123;48.864;9.200;2024-02-21T03:41:16;5.85;;;3.13;;
12118;SDS011;6123;48.864;9.200;2024-02-21T03:43:42;6.72;;;2.92;;
12118;SDS011;6123;48.864;9.200;2024-02-21T03:46:08;5.82;;;2.95;;
12118;SDS011;6123;48.864;9.200;2024-02-21T03:48:33;4.40;;;2.80;;
12118;SDS011;6123;48.864;9.200;2024-02-21T03:50:59;4.93;;;2.92;;
12118;SDS011;6123;48.864;9.200;2024-02-21T03:53:24;4.47;;;2.63;;
12118;SDS011;6123;48.864;9.200;2024-02-21T03:55:50;7.05;;;2.88;;
12118;SDS011;6123;48.864;9.200;2024-02-21T03:58:16;5.30;;;2.90;;
12118;SDS011;6123;48.864;9.200;2024-02-21T04:00:41;4.82;;;2.60;;
12118;SDS011;6123;48.864;9.200;2024-02-21T04:03:07;5.75;;;2.80;;
12118;SDS011;6123;48.864;9.200;2024-02-21T04:05:32;5.00;;;2.78;;
12118;SDS011;6123;48.864;9.200;2024-02-21T04:07:58;5.47;;;2.65;;
12118;SDS011;6123;48.864;9.200;2024-02-21T04:10:24;3.63;;;2.53;;
12118;SDS011;6123;48.864;9.200;2024-02-21T04:12:49;5.20;;;2.85;;
12118;SDS011;6123;48.864;9.200;2024-02-21T04:15:15;4.53;;;2.80;;
12118;SDS011;6123;48.864;9.200;2024-02-21T04:17:41;6.30;;;3.28;;
12118;SDS011;6123;48.864;9.200;2024-02-21T04:20:13;3.38;;;2.38;;
12118;SDS011;6123;48.864;9.200;2024-02-21T04:22:40;4.07;;;2.63;;
12118;SDS011;6123;48.864;9.200;2024-02-21T04:25:05;7.40;;;2.78;;
12118;SDS011;6123;48.864;9.200;2024-02-21T04:27:31;3.58;;;2.55;;
12118;SDS011;6123;48.864;9.200;2024-02-21T04:29:57;5.07;;;2.60;;
12118;SDS011;6123;48.864;9.200;2024-02-21T04:32:23;5.55;;;3.00;;
12118;SDS011;6123;48.864;9.200;2024-02-21T04:34:48;4.32;;;2.63;;
12118;SDS011;6123;48.864;9.200;2024-02-21T04:37:14;5.75;;;3.20;;
12118;SDS011;6123;48.864;9.200;2024-02-21T04:39:39;6.03;;;2.97;;
12118;SDS011;6123;48.864;9.200;2024-02-21T04:42:05;7.97;;;2.83;;
12118;SDS011;6123;48.864;9.200;2024-02-21T04:44:31;7.82;;;3.28;;
12118;SDS011;6123;48.864;9.200;2024-02-21T04:46:56;6.80;;;3.10;;
12118;SDS011;6123;48.864;9.200;2024-02-21T04:49:22;4.72;;;2.67;;
12118;SDS011;6123;48.864;9.200;2024-02-21T04:51:47;7.55;;;3.00;;
12118;SDS011;6123;48.864;9.200;2024-02-21T04:54:13;5.60;;;2.67;;
12118;SDS011;6123;48.864;9.200;2024-02-21T04:56:38;3.60;;;2.63;;
12118;SDS011;6123;48.864;9.200;2024-02-21T04:59:04;5.70;;;2.90;;
12118;SDS011;6123;48.864;9.200;2024-02-21T05:01:29;6.53;;;3.10;;
12118;SDS011;6123;48.864;9.200;2024-02-21T05:03:55;6.60;;;3.03;;
12118;SDS011;6123;48.864;9.200;2024-02-21T05:06:20;5.22;;;2.90;;
12118;SDS011;6123;48.864;9.200;2024-02-21T05:08:46;8.27;;;3.10;;
12118;SDS011;6123;48.864;9.200;2024-02-21T05:11:12;5.88;;;2.72;;
12118;SDS011;6123;48.864;9.200;2024-02-21T05:13:38;7.88;;;3.20;;
12118;SDS011;6123;48.864;9.200;2024-02-21T05:16:03;4.97;;;3.20;;
12118;SDS011;6123;48.864;9.200;2024-02-21T05:18:29;4.80;;;2.63;;
12118;SDS011;6123;48.864;9.200;2024-02-21T05:20:55;4.43;;;2.80;;
12118;SDS011;6123;48.864;9.200;2024-02-21T05:23:20;6.03;;;2.88;;
12118;SDS011;6123;48.864;9.200;2024-02-21T05:25:46;4.68;;;3.33;;
12118;SDS011;6123;48.864;9.200;2024-02-21T05:28:11;4.72;;;2.85;;
12118;SDS011;6123;48.864;9.200;2024-02-21T05:30:37;6.28;;;3.05;;
12118;SDS011;6123;48.864;9.200;2024-02-21T05:33:06;9.05;;;3.30;;
12118;SDS011;6123;48.864;9.200;2024-02-21T05:35:32;3.90;;;2.88;;
12118;SDS011;6123;48.864;9.200;2024-02-21T05:37:57;5.25;;;3.30;;
12118;SDS011;6123;48.864;9.200;2024-02-21T05:40:24;7.43;;;3.00;;
12118;SDS011;6123;48.864;9.200;2024-02-21T05:42:50;5.63;;;3.10;;
12118;SDS011;6123;48.864;9.200;2024-02-21T05:45:16;5.35;;;2.95;;
12118;SDS011;6123;48.864;9.200;2024-02-21T05:47:42;4.25;;;2.97;;
12118;SDS011;6123;48.864;9.200;2024-02-21T05:50:09;7.68;;;3.25;;
12118;SDS011;6123;48.864;9.200;2024-02-21T05:52:34;5.82;;;3.40;;
12118;SDS011;6123;48.864;9.200;2024-02-21T05:55:00;6.70;;;3.40;;
12118;SDS011;6123;48.864;9.200;2024-02-21T05:57:26;8.15;;;3.17;;
12118;SDS011;6123;48.864;9.200;2024-02-21T05:59:51;7.32;;;2.58;;
12118;SDS011;6123;48.864;9.200;2024-02-21T06:02:17;5.07;;;3.00;;
12118;SDS011;6123;48.864;9.200;2024-02-21T06:04:42;6.65;;;3.35;;
12118;SDS011;6123;48.864;9.200;2024-02-21T06:07:09;6.25;;;3.20;;
12118;SDS011;6123;48.864;9.200;2024-02-21T06:09:34;4.40;;;2.42;;
12118;SDS011;6123;48.864;9.200;2024-02-21T06:12:00;5.25;;;3.35;;
12118;SDS011;6123;48.864;9.200;2024-02-21T06:14:26;5.38;;;2.80;;
12118;SDS011;6123;48.864;9.200;2024-02-21T06:16:51;5.45;;;2.75;;
12118;SDS011;6123;48.864;9.200;2024-02-21T06:19:17;4.85;;;2.53;;
12118;SDS011;6123;48.864;9.200;2024-02-21T06:21:42;5.50;;;2.20;;
12118;SDS011;6123;48.864;9.200;2024-02-21T06:24:08;6.93;;;2.78;;
12118;SDS011;6123;48.864;9.200;2024-02-21T06:26:33;5.53;;;2.58;;
12118;SDS011;6123;48.864;9.200;2024-02-21T06:28:59;6.53;;;2.55;;
12118;SDS011;6123;48.864;9.200;2024-02-21T06:31:25;4.40;;;2.45;;
12118;SDS011;6123;48.864;9.200;2024-02-21T06:33:50;4.88;;;2.65;;
12118;SDS011;6123;48.864;9.200;2024-02-21T06:36:16;4.78;;;2.45;;
12118;SDS011;6123;48.864;9.200;2024-02-21T06:38:42;4.60;;;2.80;;
12118;SDS011;6123;48.864;9.200;2024-02-21T06:41:14;4.47;;;2.63;;
12118;SDS011;6123;48.864;9.200;2024-02-21T06:43:40;3.88;;;2.67;;
12118;SDS011;6123;48.864;9.200;2024-02-21T06:46:06;6.35;;;2.60;;
12118;SDS011;6123;48.864;9.200;2024-02-21T06:48:31;5.93;;;2.80;;
12118;SDS011;6123;48.864;9.200;2024-02-21T06:50:57;3.95;;;2.50;;
12118;SDS011;6123;48.864;9.200;2024-02-21T06:53:22;6.95;;;3.35;;
12118;SDS011;6123;48.864;9.200;2024-02-21T06:55:48;6.15;;;2.75;;
12118;SDS011;6123;48.864;9.200;2024-02-21T06:58:13;6.78;;;2.95;;
12118;SDS011;6123;48.864;9.200;2024-02-21T07:00:42;6.63;;;2.90;;
12118;SDS011;6123;48.864;9.200;2024-02-21T07:03:07;4.00;;;2.70;;
12118;SDS011;6123;48.864;9.200;2024-02-21T07:05:33;7.07;;;2.90;;
12118;SDS011;6123;48.864;9.200;2024-02-21T07:07:59;6.00;;;2.83;;
12118;SDS011;6123;48.864;9.200;2024-02-21T07:10:25;3.75;;;2.70;;
12118;SDS011;6123;48.864;9.200;2024-02-21T07:12:50;4.93;;;2.65;;
12118;SDS011;6123;48.864;9.200;2024-02-21T07:15:17;3.55;;;2.38;;
12118;SDS011;6123;48.864;9.200;2024-02-21T07:17:43;5.35;;;2.50;;
12118;SDS011;6123;48.864;9.200;2024-02-21T07:20:09;6.10;;;2.45;;
12118;SDS011;6123;48.864;9.200;2024-02-21T07:22:34;4.30;;;2.13;;
12118;SDS011;6123;48.864;9.200;2024-02-21T07:25:00;4.35;;;2.00;;
12118;SDS011;6123;48.864;9.200;2024-02-21T07:27:25;6.25;;;2.47;;
12118;SDS011;6123;48.864;9.200;2024-02-21T07:29:55;6.68;;;2.45;;
12118;SDS011;6123;48.864;9.200;2024-02-21T07:32:21;4.60;;;2.45;;
12118;SDS011;6123;48.864;9.200;2024-02-21T07:34:46;6.05;;;2.60;;
12118;SDS011;6123;48.864;9.200;2024-02-21T07:37:12;5.97;;;2.63;;
12118;SDS011;6123;48.864;9.200;2024-02-21T07:39:37;3.17;;;2.00;;
12118;SDS011;6123;48.864;9.200;2024-02-21T07:42:03;6.97;;;2.55;;
12118;SDS011;6123;48.864;9.200;2024-02-21T07:44:29;6.53;;;2.50;;
12118;SDS011;6123;48.864;9.200;2024-02-21T07:46:56;3.83;;;2.42;;
12118;SDS011;6123;48.864;9.200;2024-02-21T07:49:22;6.00;;;2.22;;
12118;SDS011;6123;48.864;9.200;2024-02-21T07:51:47;9.35;;;2.40;;
12118;SDS011;6123;48.864;9.200;2024-02-21T07:54:13;5.35;;;2.17;;
12118;SDS011;6123;48.864;9.200;2024-02-21T07:56:39;6.40;;;2.70;;
12118;SDS011;6123;48.864;9.200;2024-02-21T07:59:04;3.83;;;2.15;;
12118;SDS011;6123;48.864;9.200;2024-02-21T08:01:30;7.63;;;2.53;;
12118;SDS011;6123;48.864;9.200;2024-02-21T08:03:55;4.35;;;2.30;;
12118;SDS011;6123;48.864;9.200;2024-02-21T08:06:21;6.63;;;2.30;;
12118;SDS011;6123;48.864;9.200;2024-02-21T08:08:48;4.22;;;2.20;;
12118;SDS011;6123;48.864;9.200;2024-02-21T08:11:13;3.83;;;1.95;;
12118;SDS011;6123;48.864;9.200;2024-02-21T08:13:39;4.03;;;2.10;;
12118;SDS011;6123;48.864;9.200;2024-02-21T08:16:04;5.40;;;2.38;;
12118;SDS011;6123;48.864;9.200;2024-02-21T08:18:30;6.30;;;2.00;;
12118;SDS011;6123;48.864;9.200;2024-02-21T08:20:56;4.28;;;2.17;;
12118;SDS011;6123;48.864;9.200;2024-02-21T08:23:23;3.33;;;1.83;;
12118;SDS011;6123;48.864;9.200;2024-02-21T08:25:48;3.15;;;1.77;;
12118;SDS011;6123;48.864;9.200;2024-02-21T08:28:14;3.05;;;1.70;;
12118;SDS011;6123;48.864;9.200;2024-02-21T08:30:40;3.08;;;1.35;;
12118;SDS011;6123;48.864;9.200;2024-02-21T08:33:09;4.78;;;1.67;;
12118;SDS011;6123;48.864;9.200;2024-02-21T08:35:34;3.47;;;2.30;;
12118;SDS011;6123;48.864;9.200;2024-02-21T08:38:00;6.00;;;2.13;;
12118;SDS011;6123;48.864;9.200;2024-02-21T08:40:25;7.28;;;2.05;;
12118;SDS011;6123;48.864;9.200;2024-02-21T08:42:51;5.10;;;2.00;;
12118;SDS011;6123;48.864;9.200;2024-02-21T08:45:18;6.03;;;2.25;;
12118;SDS011;6123;48.864;9.200;2024-02-21T08:47:44;5.47;;;1.80;;
12118;SDS011;6123;48.864;9.200;2024-02-21T08:50:10;5.03;;;2.25;;
12118;SDS011;6123;48.864;9.200;2024-02-21T08:52:36;5.00;;;1.92;;
12118;SDS011;6123;48.864;9.200;2024-02-21T08:55:01;3.50;;;1.55;;
12118;SDS011;6123;48.864;9.200;2024-02-21T08:57:27;5.40;;;2.25;;
12118;SDS011;6123;48.864;9.200;2024-02-21T08:59:53;4.85;;;2.30;;
12118;SDS011;6123;48.864;9.200;2024-02-21T09:02:18;4.00;;;1.98;;
12118;SDS011;6123;48.864;9.200;2024-02-21T09:04:44;5.60;;;1.95;;
12118;SDS011;6123;48.864;9.200;2024-02-21T09:07:10;5.63;;;2.10;;
12118;SDS011;6123;48.864;9.200;2024-02-21T09:09:36;3.38;;;1.38;;
12118;SDS011;6123;48.864;9.200;2024-02-21T09:12:03;4.43;;;2.13;;
12118;SDS011;6123;48.864;9.200;2024-02-21T09:14:32;3.15;;;2.00;;
12118;SDS011;6123;48.864;9.200;2024-02-21T09:16:58;3.85;;;1.88;;
12118;SDS011;6123;48.864;9.200;2024-02-21T09:19:24;4.70;;;1.90;;
12118;SDS011;6123;48.864;9.200;2024-02-21T09:21:49;3.10;;;1.40;;
12118;SDS011;6123;48.864;9.200;2024-02-21T09:24:15;3.40;;;2.03;;
12118;SDS011;6123;48.864;9.200;2024-02-21T09:26:40;5.18;;;2.22;;
12118;SDS011;6123;48.864;9.200;2024-02-21T09:29:06;6.30;;;1.85;;
12118;SDS011;6123;48.864;9.200;2024-02-21T09:31:31;3.90;;;2.00;;
12118;SDS011;6123;48.864;9.200;2024-02-21T09:33:57;6.78;;;2.35;;
12118;SDS011;6123;48.864;9.200;2024-02-21T09:36:22;4.38;;;2.03;;
12118;SDS011;6123;48.864;9.200;2024-02-21T09:38:48;4.05;;;2.03;;
12118;SDS011;6123;48.864;9.200;2024-02-21T09:41:17;4.47;;;2.08;;
12118;SDS011;6123;48.864;9.200;2024-02-21T09:43:49;3.22;;;1.88;;
12118;SDS011;6123;48.864;9.200;2024-02-21T09:46:17;3.42;;;2.28;;
12118;SDS011;6123;48.864;9.200;2024-02-21T09:51:14;4.65;;;1.90;;
12118;SDS011;6123;48.864;9.200;2024-02-21T09:53:41;3.75;;;1.85;;
12118;SDS011;6123;48.864;9.200;2024-02-21T09:56:08;4.43;;;1.92;;
12118;SDS011;6123;48.864;9.200;2024-02-21T09:58:34;4.95;;;1.58;;
12118;SDS011;6123;48.864;9.200;2024-02-21T10:00:59;3.13;;;1.90;;
12118;SDS011;6123;48.864;9.200;2024-02-21T10:03:25;3.20;;;1.90;;
12118;SDS011;6123;48.864;9.200;2024-02-21T10:05:51;4.78;;;2.28;;
12118;SDS011;6123;48.864;9.200;2024-02-21T10:08:17;3.55;;;1.98;;
12118;SDS011;6123;48.864;9.200;2024-02-21T10:10:44;3.45;;;1.85;;
12118;SDS011;6123;48.864;9.200;2024-02-21T10:13:11;2.92;;;1.88;;
12118;SDS011;6123;48.864;9.200;2024-02-21T10:15:49;3.78;;;2.00;;
12118;SDS011;6123;48.864;9.200;2024-02-21T10:18:25;3.45;;;1.88;;
12118;SDS011;6123;48.864;9.200;2024-02-21T10:20:59;4.38;;;1.77;;
12118;SDS011;6123;48.864;9.200;2024-02-21T10:23:43;4.70;;;1.98;;
12118;SDS011;6123;48.864;9.200;2024-02-21T10:26:09;3.92;;;2.15;;
12118;SDS011;6123;48.864;9.200;2024-02-21T10:28:35;3.63;;;1.83;;
12118;SDS011;6123;48.864;9.200;2024-02-21T10:31:03;4.05;;;1.88;;
12118;SDS011;6123;48.864;9.200;2024-02-21T10:33:28;3.95;;;2.15;;
12118;SDS011;6123;48.864;9.200;2024-02-21T10:36:05;4.53;;;1.95;;
12118;SDS011;6123;48.864;9.200;2024-02-21T10:38:38;3.42;;;1.80;;
12118;SDS011;6123;48.864;9.200;2024-02-21T10:41:06;3.88;;;2.03;;
12118;SDS011;6123;48.864;9.200;2024-02-21T10:43:33;2.97;;;2.22;;
12118;SDS011;6123;48.864;9.200;2024-02-21T10:46:06;5.35;;;1.90;;
12118;SDS011;6123;48.864;9.200;2024-02-21T10:48:42;3.65;;;1.77;;
12118;SDS011;6123;48.864;9.200;2024-02-21T10:51:16;4.85;;;1.92;;
12118;SDS011;6123;48.864;9.200;2024-02-21T10:56:32;3.88;;;1.88;;
12118;SDS011;6123;48.864;9.200;2024-02-21T10:59:01;3.33;;;1.50;;
12118;SDS011;6123;48.864;9.200;2024-02-21T11:01:29;4.53;;;1.80;;
12118;SDS011;6123;48.864;9.200;2024-02-21T11:03:57;4.13;;;2.20;;
12118;SDS011;6123;48.864;9.200;2024-02-21T11:06:26;3.50;;;2.15;;
12118;SDS011;6123;48.864;9.200;2024-02-21T11:09:03;4.13;;;1.98;;
12118;SDS011;6123;48.864;9.200;2024-02-21T11:11:37;5.25;;;2.10;;
12118;SDS011;6123;48.864;9.200;2024-02-21T11:14:10;3.42;;;1.58;;
12118;SDS011;6123;48.864;9.200;2024-02-21T11:16:39;3.67;;;2.10;;
12118;SDS011;6123;48.864;9.200;2024-02-21T11:21:32;3.47;;;1.92;;
12118;SDS011;6123;48.864;9.200;2024-02-21T11:24:00;3.67;;;1.92;;
12118;SDS011;6123;48.864;9.200;2024-02-21T11:26:27;3.05;;;1.88;;
12118;SDS011;6123;48.864;9.200;2024-02-21T11:29:00;3.47;;;1.90;;
12118;SDS011;6123;48.864;9.200;2024-02-21T11:31:37;6.00;;;1.92;;
12118;SDS011;6123;48.864;9.200;2024-02-21T11:34:05;5.32;;;2.00;;
12118;SDS011;6123;48.864;9.200;2024-02-21T11:36:33;3.33;;;2.08;;
12118;SDS011;6123;48.864;9.200;2024-02-21T11:39:04;3.67;;;1.90;;
12118;SDS011;6123;48.864;9.200;2024-02-21T11:41:30;3.97;;;1.98;;
12118;SDS011;6123;48.864;9.200;2024-02-21T11:43:56;4.32;;;1.85;;
12118;SDS011;6123;48.864;9.200;2024-02-21T11:46:22;5.78;;;1.90;;
12118;SDS011;6123;48.864;9.200;2024-02-21T11:48:48;5.57;;;2.00;;
12118;SDS011;6123;48.864;9.200;2024-02-21T11:51:24;4.10;;;1.83;;
12118;SDS011;6123;48.864;9.200;2024-02-21T11:53:51;6.18;;;2.03;;
12118;SDS011;6123;48.864;9.200;2024-02-21T11:56:18;2.83;;;1.70;;
12118;SDS011;6123;48.864;9.200;2024-02-21T11:58:45;2.47;;;1.63;;
12118;SDS011;6123;48.864;9.200;2024-02-21T12:01:11;2.80;;;1.95;;
12118;SDS011;6123;48.864;9.200;2024-02-21T12:03:37;2.78;;;1.80;;
12118;SDS011;6123;48.864;9.200;2024-02-21T12:06:03;5.13;;;1.70;;
12118;SDS011;6123;48.864;9.200;2024-02-21T12:08:43;3.67;;;1.83;;
12118;SDS011;6123;48.864;9.200;2024-02-21T12:11:18;3.25;;;1.90;;
12118;SDS011;6123;48.864;9.200;2024-02-21T12:13:45;2.75;;;1.65;;
12118;SDS011;6123;48.864;9.200;2024-02-21T12:16:12;3.25;;;1.45;;
12118;SDS011;6123;48.864;9.200;2024-02-21T12:18:40;5.15;;;2.10;;
12118;SDS011;6123;48.864;9.200;2024-02-21T12:21:06;2.97;;;1.63;;
12118;SDS011;6123;48.864;9.200;2024-02-21T12:23:31;5.53;;;1.98;;
12118;SDS011;6123;48.864;9.200;2024-02-21T12:25:58;5.43;;;2.25;;
12118;SDS011;6123;48.864;9.200;2024-02-21T12:28:24;5.63;;;2.65;;
12118;SDS011;6123;48.864;9.200;2024-02-21T12:30:51;3.08;;;2.17;;
12118;SDS011;6123;48.864;9.200;2024-02-21T12:33:17;5.15;;;2.33;;
12118;SDS011;6123;48.864;9.200;2024-02-21T12:35:43;4.20;;;2.30;;
12118;SDS011;6123;48.864;9.200;2024-02-21T12:38:08;6.50;;;2.00;;
12118;SDS011;6123;48.864;9.200;2024-02-21T12:40:34;2.30;;;1.50;;
12118;SDS011;6123;48.864;9.200;2024-02-21T12:43:00;3.13;;;1.70;;
12118;SDS011;6123;48.864;9.200;2024-02-21T12:45:28;3.13;;;1.90;;
12118;SDS011;6123;48.864;9.200;2024-02-21T12:47:53;2.30;;;1.60;;
12118;SDS011;6123;48.864;9.200;2024-02-21T12:50:19;3.38;;;1.85;;
12118;SDS011;6123;48.864;9.200;2024-02-21T12:52:45;3.78;;;1.67;;
12118;SDS011;6123;48.864;9.200;2024-02-21T12:55:11;2.85;;;1.50;;
12118;SDS011;6123;48.864;9.200;2024-02-21T12:57:38;2.45;;;1.52;;
12118;SDS011;6123;48.864;9.200;2024-02-21T13:00:05;3.33;;;1.83;;
12118;SDS011;6123;48.864;9.200;2024-02-21T13:02:33;4.07;;;1.80;;
12118;SDS011;6123;48.864;9.200;2024-02-21T13:04:59;2.97;;;1.60;;
12118;SDS011;6123;48.864;9.200;2024-02-21T13:07:27;4.28;;;1.80;;
12118;SDS011;6123;48.864;9.200;2024-02-21T13:09:53;7.05;;;2.10;;
12118;SDS011;6123;48.864;9.200;2024-02-21T13:12:19;3.70;;;1.70;;
12118;SDS011;6123;48.864;9.200;2024-02-21T13:14:44;4.85;;;1.95;;
12118;SDS011;6123;48.864;9.200;2024-02-21T13:17:10;3.92;;;1.92;;
12118;SDS011;6123;48.864;9.200;2024-02-21T13:19:35;4.32;;;1.83;;
12118;SDS011;6123;48.864;9.200;2024-02-21T13:22:01;5.63;;;1.70;;
12118;SDS011;6123;48.864;9.200;2024-02-21T13:24:27;2.83;;;1.55;;
12118;SDS011;6123;48.864;9.200;2024-02-21T13:26:53;3.50;;;1.73;;
12118;SDS011;6123;48.864;9.200;2024-02-21T13:29:18;2.70;;;1.50;;
12118;SDS011;6123;48.864;9.200;2024-02-21T13:31:45;2.50;;;1.65;;
12118;SDS011;6123;48.864;9.200;2024-02-21T13:34:11;3.17;;;1.70;;
12118;SDS011;6123;48.864;9.200;2024-02-21T13:36:36;2.17;;;1.38;;
12118;SDS011;6123;48.864;9.200;2024-02-21T13:39:02;3.17;;;1.73;;
12118;SDS011;6123;48.864;9.200;2024-02-21T13:41:30;2.90;;;1.52;;
12118;SDS011;6123;48.864;9.200;2024-02-21T13:43:56;2.33;;;1.40;;
12118;SDS011;6123;48.864;9.200;2024-02-21T13:46:22;3.42;;;1.75;;
12118;SDS011;6123;48.864;9.200;2024-02-21T13:48:48;3.55;;;1.40;;
12118;SDS011;6123;48.864;9.200;2024-02-21T13:51:14;2.72;;;1.55;;
12118;SDS011;6123;48.864;9.200;2024-02-21T13:53:41;2.88;;;1.40;;
12118;SDS011;6123;48.864;9.200;2024-02-21T13:56:08;4.63;;;1.45;;
12118;SDS011;6123;48.864;9.200;2024-02-21T13:58:34;3.38;;;1.80;;
12118;SDS011;6123;48.864;9.200;2024-02-21T14:01:00;2.15;;;1.70;;
12118;SDS011;6123;48.864;9.200;2024-02-21T14:03:26;1.60;;;1.10;;
12118;SDS011;6123;48.864;9.200;2024-02-21T14:05:51;2.17;;;1.30;;
12118;SDS011;6123;48.864;9.200;2024-02-21T14:08:17;4.97;;;1.70;;
12118;SDS011;6123;48.864;9.200;2024-02-21T14:10:43;2.35;;;1.65;;
12118;SDS011;6123;48.864;9.200;2024-02-21T14:13:08;4.55;;;1.77;;
12118;SDS011;6123;48.864;9.200;2024-02-21T14:15:34;2.25;;;1.70;;
12118;SDS011;6123;48.864;9.200;2024-02-21T14:17:59;3.47;;;1.80;;
12118;SDS011;6123;48.864;9.200;2024-02-21T14:20:25;6.30;;;1.90;;
12118;SDS011;6123;48.864;9.200;2024-02-21T14:22:50;4.93;;;1.98;;
12118;SDS011;6123;48.864;9.200;2024-02-21T14:25:16;3.55;;;1.85;;
12118;SDS011;6123;48.864;9.200;2024-02-21T14:27:42;3.63;;;2.00;;
12118;SDS011;6123;48.864;9.200;2024-02-21T14:30:08;3.38;;;1.65;;
12118;SDS011;6123;48.864;9.200;2024-02-21T14:32:35;3.50;;;1.85;;
12118;SDS011;6123;48.864;9.200;2024-02-21T14:35:01;4.47;;;2.30;;
12118;SDS011;6123;48.864;9.200;2024-02-21T14:37:27;3.65;;;2.13;;
12118;SDS011;6123;48.864;9.200;2024-02-21T14:39:53;3.08;;;1.88;;
12118;SDS011;6123;48.864;9.200;2024-02-21T14:42:18;3.92;;;1.67;;
12118;SDS011;6123;48.864;9.200;2024-02-21T14:44:44;2.83;;;1.65;;
12118;SDS011;6123;48.864;9.200;2024-02-21T14:47:09;2.67;;;1.70;;
12118;SDS011;6123;48.864;9.200;2024-02-21T14:49:35;3.55;;;1.58;;
12118;SDS011;6123;48.864;9.200;2024-02-21T14:52:00;3.78;;;1.80;;
12118;SDS011;6123;48.864;9.200;2024-02-21T14:54:26;2.15;;;1.20;;
12118;SDS011;6123;48.864;9.200;2024-02-21T14:56:52;2.42;;;1.55;;
12118;SDS011;6123;48.864;9.200;2024-02-21T14:59:19;2.47;;;1.55;;
12118;SDS011;6123;48.864;9.200;2024-02-21T15:01:45;3.15;;;1.50;;
12118;SDS011;6123;48.864;9.200;2024-02-21T15:04:10;3.60;;;1.70;;